sensor_id;sensor_type;location;lat;lon;timestamp;P1;durP1;ratioP1;P2;durP2;ratioP2
44732;SDS011;30460;50.836;4.390;2023-02-18T07:49:01;15.07;;;3.07;;
44732;SDS011;30460;50.836;4.390;2023-02-18T07:51:27;10.77;;;2.93;;
44732;SDS011;30460;50.836;4.390;2023-02-18T07:53:53;10.30;;;2.90;;
44732;SDS011;30460;50.836;4.390;2023-02-18T07:56:19;10.90;;;3.40;;
44732;SDS011;30460;50.836;4.390;2023-02-18T07:58:45;9.43;;;2.67;;
44732;SDS011;30460;50.836;4.390;2023-02-18T08:01:12;12.47;;;2.90;;
44732;SDS011;30460;50.836;4.390;2023-02-18T08:03:40;10.70;;;2.70;;
44732;SDS011;30460;50.836;4.390;2023-02-18T08:06:07;9.13;;;2.27;;
44732;SDS011;30460;50.836;4.390;2023-02-18T08:08:33;10.63;;;2.87;;
44732;SDS011;30460;50.836;4.390;2023-02-18T08:11:01;10.90;;;2.60;;
44732;SDS011;30460;50.836;4.390;2023-02-18T08:13:28;10.33;;;2.73;;
44732;SDS011;30460;50.836;4.390;2023-02-18T08:15:54;12.47;;;2.87;;
44732;SDS011;30460;50.836;4.390;2023-02-18T08:18:21;13.53;;;3.50;;
44732;SDS011;30460;50.836;4.390;2023-02-18T08:20:48;10.97;;;2.60;;
44732;SDS011;30460;50.836;4.390;2023-02-18T08:23:17;10.63;;;2.90;;
44732;SDS011;30460;50.836;4.390;2023-02-18T08:25:48;10.63;;;2.60;;
44732;SDS011;30460;50.836;4.390;2023-02-18T08:28:14;5.93;;;2.30;;
44732;SDS011;30460;50.836;4.390;2023-02-18T08:30:47;6.50;;;2.53;;
44732;SDS011;30460;50.836;4.390;2023-02-18T08:33:13;8.63;;;2.20;;
44732;SDS011;30460;50.836;4.390;2023-02-18T08:35:40;9.43;;;2.40;;
44732;SDS011;30460;50.836;4.390;2023-02-18T08:38:06;10.30;;;2.63;;
44732;SDS011;30460;50.836;4.390;2023-02-18T08:40:32;9.37;;;2.67;;
44732;SDS011;30460;50.836;4.390;2023-02-18T08:42:58;10.23;;;2.53;;
44732;SDS011;30460;50.836;4.390;2023-02-18T08:45:24;10.97;;;2.60;;
44732;SDS011;30460;50.836;4.390;2023-02-18T08:47:50;12.10;;;2.70;;
44732;SDS011;30460;50.836;4.390;2023-02-18T08:50:19;13.67;;;2.97;;
44732;SDS011;30460;50.836;4.390;2023-02-18T08:52:50;11.17;;;3.03;;
44732;SDS011;30460;50.836;4.390;2023-02-18T08:55:16;9.00;;;2.70;;
44732;SDS011;30460;50.836;4.390;2023-02-18T08:57:46;7.30;;;2.73;;
44732;SDS011;30460;50.836;4.390;2023-02-18T09:00:15;11.50;;;2.40;;
44732;SDS011;30460;50.836;4.390;2023-02-18T09:02:45;7.33;;;2.10;;
44732;SDS011;30460;50.836;4.390;2023-02-18T09:05:20;5.67;;;2.10;;
44732;SDS011;30460;50.836;4.390;2023-02-18T09:07:47;11.17;;;2.17;;
44732;SDS011;30460;50.836;4.390;2023-02-18T09:10:13;6.43;;;2.20;;
44732;SDS011;30460;50.836;4.390;2023-02-18T09:12:39;10.50;;;1.90;;
44732;SDS011;30460;50.836;4.390;2023-02-18T09:15:05;6.13;;;2.10;;
44732;SDS011;30460;50.836;4.390;2023-02-18T09:17:32;7.50;;;1.70;;
44732;SDS011;30460;50.836;4.390;2023-02-18T09:19:58;6.80;;;2.13;;
44732;SDS011;30460;50.836;4.390;2023-02-18T09:22:24;6.63;;;2.03;;
44732;SDS011;30460;50.836;4.390;2023-02-18T09:24:50;5.73;;;1.70;;
44732;SDS011;30460;50.836;4.390;2023-02-18T09:27:17;9.70;;;2.27;;
44732;SDS011;30460;50.836;4.390;2023-02-18T09:29:43;5.43;;;1.83;;
44732;SDS011;30460;50.836;4.390;2023-02-18T09:32:09;7.67;;;1.90;;
44732;SDS011;30460;50.836;4.390;2023-02-18T09:34:36;6.47;;;1.93;;
44732;SDS011;30460;50.836;4.390;2023-02-18T09:37:02;7.57;;;2.20;;
44732;SDS011;30460;50.836;4.390;2023-02-18T09:39:29;8.50;;;2.20;;
44732;SDS011;30460;50.836;4.390;2023-02-18T09:41:56;9.30;;;2.40;;
44732;SDS011;30460;50.836;4.390;2023-02-18T09:44:34;9.60;;;2.50;;
44732;SDS011;30460;50.836;4.390;2023-02-18T09:47:43;8.13;;;2.13;;
44732;SDS011;30460;50.836;4.390;2023-02-18T09:49:54;5.57;;;1.97;;
44732;SDS011;30460;50.836;4.390;2023-02-18T09:52:24;7.87;;;2.50;;
44732;SDS011;30460;50.836;4.390;2023-02-18T09:54:53;8.63;;;2.20;;
44732;SDS011;30460;50.836;4.390;2023-02-18T09:57:25;8.13;;;2.03;;
44732;SDS011;30460;50.836;4.390;2023-02-18T09:59:56;7.37;;;2.33;;
44732;SDS011;30460;50.836;4.390;2023-02-18T10:02:24;6.70;;;2.17;;
44732;SDS011;30460;50.836;4.390;2023-02-18T10:04:50;7.20;;;2.40;;
44732;SDS011;30460;50.836;4.390;2023-02-18T10:07:25;6.07;;;1.93;;
44732;SDS011;30460;50.836;4.390;2023-02-18T10:09:52;10.30;;;3.10;;
44732;SDS011;30460;50.836;4.390;2023-02-18T10:12:20;7.80;;;2.10;;
44732;SDS011;30460;50.836;4.390;2023-02-18T10:14:50;5.93;;;1.83;;
44732;SDS011;30460;50.836;4.390;2023-02-18T10:17:17;7.87;;;2.00;;
44732;SDS011;30460;50.836;4.390;2023-02-18T10:19:45;8.67;;;2.47;;
44732;SDS011;30460;50.836;4.390;2023-02-18T10:22:12;6.57;;;2.10;;
44732;SDS011;30460;50.836;4.390;2023-02-18T10:24:40;8.13;;;2.03;;
44732;SDS011;30460;50.836;4.390;2023-02-18T10:27:07;5.73;;;1.93;;
44732;SDS011;30460;50.836;4.390;2023-02-18T10:29:35;7.00;;;2.40;;
44732;SDS011;30460;50.836;4.390;2023-02-18T10:34:42;7.43;;;2.50;;
44732;SDS011;30460;50.836;4.390;2023-02-18T10:37:22;8.00;;;2.33;;
44732;SDS011;30460;50.836;4.390;2023-02-18T10:48:05;6.00;;;2.40;;
44732;SDS011;30460;50.836;4.390;2023-02-18T10:50:37;8.20;;;3.23;;
44732;SDS011;30460;50.836;4.390;2023-02-18T10:55:50;7.40;;;3.13;;
44732;SDS011;30460;50.836;4.390;2023-02-18T10:58:29;12.30;;;5.07;;
44732;SDS011;30460;50.836;4.390;2023-02-18T11:00:57;6.30;;;3.00;;
44732;SDS011;30460;50.836;4.390;2023-02-18T11:03:24;6.47;;;2.47;;
44732;SDS011;30460;50.836;4.390;2023-02-18T11:05:51;7.33;;;3.10;;
44732;SDS011;30460;50.836;4.390;2023-02-18T11:08:22;7.73;;;2.77;;
44732;SDS011;30460;50.836;4.390;2023-02-18T11:10:49;6.50;;;2.70;;
44732;SDS011;30460;50.836;4.390;2023-02-18T11:13:16;6.27;;;2.53;;
44732;SDS011;30460;50.836;4.390;2023-02-18T11:18:43;6.27;;;2.70;;
44732;SDS011;30460;50.836;4.390;2023-02-18T11:23:47;7.23;;;2.60;;
44732;SDS011;30460;50.836;4.390;2023-02-18T11:26:14;14.30;;;3.00;;
44732;SDS011;30460;50.836;4.390;2023-02-18T11:28:42;9.47;;;2.80;;
44732;SDS011;30460;50.836;4.390;2023-02-18T11:31:10;8.50;;;2.40;;
44732;SDS011;30460;50.836;4.390;2023-02-18T11:33:41;8.00;;;2.33;;
44732;SDS011;30460;50.836;4.390;2023-02-18T11:36:30;12.33;;;2.80;;
44732;SDS011;30460;50.836;4.390;2023-02-18T11:38:55;9.30;;;2.83;;
44732;SDS011;30460;50.836;4.390;2023-02-18T11:41:29;8.13;;;2.43;;
44732;SDS011;30460;50.836;4.390;2023-02-18T11:43:56;8.80;;;2.70;;
44732;SDS011;30460;50.836;4.390;2023-02-18T11:46:24;7.23;;;2.37;;
44732;SDS011;30460;50.836;4.390;2023-02-18T11:48:51;9.83;;;2.70;;
44732;SDS011;30460;50.836;4.390;2023-02-18T11:56:18;7.20;;;2.50;;
44732;SDS011;30460;50.836;4.390;2023-02-18T11:58:45;8.80;;;2.70;;
44732;SDS011;30460;50.836;4.390;2023-02-18T12:04:10;9.43;;;2.47;;
44732;SDS011;30460;50.836;4.390;2023-02-18T12:07:24;8.53;;;2.67;;
44732;SDS011;30460;50.836;4.390;2023-02-18T12:11:53;10.30;;;2.80;;
44732;SDS011;30460;50.836;4.390;2023-02-18T12:14:21;9.33;;;2.90;;
44732;SDS011;30460;50.836;4.390;2023-02-18T12:17:04;10.07;;;2.47;;
44732;SDS011;30460;50.836;4.390;2023-02-18T12:27:33;11.23;;;3.03;;
44732;SDS011;30460;50.836;4.390;2023-02-18T12:30:13;10.70;;;2.40;;
44732;SDS011;30460;50.836;4.390;2023-02-18T12:32:56;6.67;;;2.60;;
44732;SDS011;30460;50.836;4.390;2023-02-18T12:54:05;12.63;;;2.47;;
44732;SDS011;30460;50.836;4.390;2023-02-18T13:01:52;8.77;;;2.30;;
44732;SDS011;30460;50.836;4.390;2023-02-18T13:09:37;7.00;;;2.53;;
44732;SDS011;30460;50.836;4.390;2023-02-18T13:12:20;13.57;;;3.33;;
44732;SDS011;30460;50.836;4.390;2023-02-18T13:15:00;8.80;;;2.97;;
44732;SDS011;30460;50.836;4.390;2023-02-18T13:17:28;11.10;;;3.13;;
44732;SDS011;30460;50.836;4.390;2023-02-18T13:20:02;8.83;;;3.43;;
44732;SDS011;30460;50.836;4.390;2023-02-18T13:22:29;9.83;;;3.03;;
44732;SDS011;30460;50.836;4.390;2023-02-18T13:24:57;8.73;;;3.20;;
44732;SDS011;30460;50.836;4.390;2023-02-18T13:27:38;9.57;;;2.83;;
44732;SDS011;30460;50.836;4.390;2023-02-18T13:32:39;7.27;;;3.17;;
44732;SDS011;30460;50.836;4.390;2023-02-18T13:40:34;12.60;;;2.73;;
44732;SDS011;30460;50.836;4.390;2023-02-18T13:45:43;6.30;;;2.60;;
44732;SDS011;30460;50.836;4.390;2023-02-18T13:48:22;9.70;;;2.90;;
44732;SDS011;30460;50.836;4.390;2023-02-18T13:50:51;9.70;;;3.50;;
44732;SDS011;30460;50.836;4.390;2023-02-18T13:53:19;4.63;;;2.60;;
44732;SDS011;30460;50.836;4.390;2023-02-18T13:58:18;9.30;;;3.57;;
44732;SDS011;30460;50.836;4.390;2023-02-18T14:00:49;12.30;;;3.33;;
44732;SDS011;30460;50.836;4.390;2023-02-18T14:03:27;9.00;;;3.50;;
44732;SDS011;30460;50.836;4.390;2023-02-18T14:05:57;8.17;;;3.13;;
44732;SDS011;30460;50.836;4.390;2023-02-18T14:08:34;10.53;;;3.63;;
44732;SDS011;30460;50.836;4.390;2023-02-18T14:11:22;9.07;;;3.07;;
44732;SDS011;30460;50.836;4.390;2023-02-18T14:13:53;18.83;;;8.07;;
44732;SDS011;30460;50.836;4.390;2023-02-18T14:16:19;11.53;;;2.83;;
44732;SDS011;30460;50.836;4.390;2023-02-18T14:26:07;9.27;;;3.43;;
44732;SDS011;30460;50.836;4.390;2023-02-18T14:41:21;8.17;;;3.13;;
44732;SDS011;30460;50.836;4.390;2023-02-18T14:43:58;4.57;;;2.60;;
44732;SDS011;30460;50.836;4.390;2023-02-18T14:51:46;6.53;;;2.97;;
44732;SDS011;30460;50.836;4.390;2023-02-18T14:54:14;8.77;;;3.63;;
44732;SDS011;30460;50.836;4.390;2023-02-18T14:56:59;7.60;;;3.23;;
44732;SDS011;30460;50.836;4.390;2023-02-18T14:59:36;10.00;;;3.33;;
44732;SDS011;30460;50.836;4.390;2023-02-18T15:02:14;7.83;;;3.40;;
44732;SDS011;30460;50.836;4.390;2023-02-18T15:04:42;5.90;;;2.90;;
44732;SDS011;30460;50.836;4.390;2023-02-18T15:07:09;8.47;;;3.40;;
44732;SDS011;30460;50.836;4.390;2023-02-18T15:09:43;8.60;;;2.80;;
44732;SDS011;30460;50.836;4.390;2023-02-18T15:12:11;7.97;;;2.87;;
44732;SDS011;30460;50.836;4.390;2023-02-18T15:14:40;9.50;;;3.50;;
44732;SDS011;30460;50.836;4.390;2023-02-18T15:17:10;5.50;;;2.30;;
44732;SDS011;30460;50.836;4.390;2023-02-18T15:19:40;7.83;;;3.57;;
44732;SDS011;30460;50.836;4.390;2023-02-18T15:22:12;8.80;;;3.30;;
44732;SDS011;30460;50.836;4.390;2023-02-18T15:24:39;6.63;;;2.70;;
44732;SDS011;30460;50.836;4.390;2023-02-18T15:27:14;5.77;;;2.87;;
44732;SDS011;30460;50.836;4.390;2023-02-18T15:29:40;10.50;;;3.33;;
44732;SDS011;30460;50.836;4.390;2023-02-18T15:32:27;10.67;;;3.20;;
44732;SDS011;30460;50.836;4.390;2023-02-18T15:35:02;13.77;;;3.27;;
44732;SDS011;30460;50.836;4.390;2023-02-18T15:37:42;8.23;;;3.50;;
44732;SDS011;30460;50.836;4.390;2023-02-18T15:40:13;7.20;;;3.53;;
44732;SDS011;30460;50.836;4.390;2023-02-18T15:42:39;9.47;;;3.77;;
44732;SDS011;30460;50.836;4.390;2023-02-18T15:47:44;8.33;;;3.60;;
44732;SDS011;30460;50.836;4.390;2023-02-18T15:50:21;9.23;;;3.53;;
44732;SDS011;30460;50.836;4.390;2023-02-18T15:52:48;6.60;;;3.30;;
44732;SDS011;30460;50.836;4.390;2023-02-18T15:55:18;6.77;;;3.30;;
44732;SDS011;30460;50.836;4.390;2023-02-18T15:57:47;6.00;;;3.50;;
44732;SDS011;30460;50.836;4.390;2023-02-18T16:00:24;8.43;;;3.27;;
44732;SDS011;30460;50.836;4.390;2023-02-18T16:05:36;6.83;;;3.17;;
44732;SDS011;30460;50.836;4.390;2023-02-18T16:08:23;6.70;;;3.37;;
44732;SDS011;30460;50.836;4.390;2023-02-18T16:11:03;11.60;;;3.37;;
44732;SDS011;30460;50.836;4.390;2023-02-18T16:13:30;8.73;;;2.87;;
44732;SDS011;30460;50.836;4.390;2023-02-18T16:15:56;8.37;;;3.30;;
44732;SDS011;30460;50.836;4.390;2023-02-18T16:18:30;6.13;;;3.10;;
44732;SDS011;30460;50.836;4.390;2023-02-18T16:21:21;7.40;;;3.07;;
44732;SDS011;30460;50.836;4.390;2023-02-18T16:23:51;5.13;;;2.80;;
44732;SDS011;30460;50.836;4.390;2023-02-18T16:26:26;9.63;;;4.17;;
44732;SDS011;30460;50.836;4.390;2023-02-18T16:28:52;7.90;;;3.30;;
44732;SDS011;30460;50.836;4.390;2023-02-18T16:31:19;6.20;;;3.27;;
44732;SDS011;30460;50.836;4.390;2023-02-18T16:33:46;5.93;;;2.93;;
44732;SDS011;30460;50.836;4.390;2023-02-18T16:36:13;5.53;;;2.90;;
44732;SDS011;30460;50.836;4.390;2023-02-18T16:38:43;6.40;;;3.37;;
44732;SDS011;30460;50.836;4.390;2023-02-18T16:41:11;6.93;;;3.30;;
44732;SDS011;30460;50.836;4.390;2023-02-18T16:43:37;8.97;;;3.37;;
44732;SDS011;30460;50.836;4.390;2023-02-18T16:46:21;5.90;;;3.27;;
44732;SDS011;30460;50.836;4.390;2023-02-18T16:48:48;5.97;;;3.53;;
44732;SDS011;30460;50.836;4.390;2023-02-18T16:51:33;8.30;;;3.33;;
44732;SDS011;30460;50.836;4.390;2023-02-18T16:54:01;7.00;;;3.70;;
44732;SDS011;30460;50.836;4.390;2023-02-18T16:56:28;5.70;;;3.47;;
44732;SDS011;30460;50.836;4.390;2023-02-18T16:58:56;6.43;;;3.80;;
44732;SDS011;30460;50.836;4.390;2023-02-18T17:01:30;8.17;;;3.73;;
44732;SDS011;30460;50.836;4.390;2023-02-18T17:03:59;5.93;;;3.93;;
44732;SDS011;30460;50.836;4.390;2023-02-18T17:06:27;6.47;;;3.80;;
44732;SDS011;30460;50.836;4.390;2023-02-18T17:08:53;6.80;;;4.43;;
44732;SDS011;30460;50.836;4.390;2023-02-18T17:11:24;9.83;;;4.43;;
44732;SDS011;30460;50.836;4.390;2023-02-18T17:13:50;8.27;;;3.97;;
44732;SDS011;30460;50.836;4.390;2023-02-18T17:16:17;7.93;;;3.97;;
44732;SDS011;30460;50.836;4.390;2023-02-18T17:18:43;6.50;;;3.67;;
44732;SDS011;30460;50.836;4.390;2023-02-18T17:21:18;6.97;;;4.13;;
44732;SDS011;30460;50.836;4.390;2023-02-18T17:23:45;6.30;;;3.87;;
44732;SDS011;30460;50.836;4.390;2023-02-18T17:26:13;7.73;;;3.73;;
44732;SDS011;30460;50.836;4.390;2023-02-18T17:28:40;7.53;;;4.23;;
44732;SDS011;30460;50.836;4.390;2023-02-18T17:31:07;7.30;;;4.20;;
44732;SDS011;30460;50.836;4.390;2023-02-18T17:33:35;6.53;;;4.30;;
44732;SDS011;30460;50.836;4.390;2023-02-18T17:36:01;6.73;;;4.10;;
44732;SDS011;30460;50.836;4.390;2023-02-18T17:38:27;6.27;;;3.90;;
44732;SDS011;30460;50.836;4.390;2023-02-18T17:40:53;7.90;;;4.30;;
44732;SDS011;30460;50.836;4.390;2023-02-18T17:43:19;3.90;;;2.50;;
44732;SDS011;30460;50.836;4.390;2023-02-18T17:45:48;5.53;;;3.93;;
44732;SDS011;30460;50.836;4.390;2023-02-18T17:48:15;7.70;;;4.47;;
44732;SDS011;30460;50.836;4.390;2023-02-18T17:50:41;8.87;;;4.70;;
44732;SDS011;30460;50.836;4.390;2023-02-18T17:53:08;9.77;;;4.60;;
44732;SDS011;30460;50.836;4.390;2023-02-18T17:55:35;10.03;;;4.97;;
44732;SDS011;30460;50.836;4.390;2023-02-18T17:58:01;9.57;;;4.83;;
44732;SDS011;30460;50.836;4.390;2023-02-18T18:00:32;9.87;;;4.80;;
44732;SDS011;30460;50.836;4.390;2023-02-18T18:02:59;10.57;;;4.90;;
44732;SDS011;30460;50.836;4.390;2023-02-18T18:05:26;7.83;;;4.80;;
44732;SDS011;30460;50.836;4.390;2023-02-18T18:07:52;7.07;;;4.70;;
44732;SDS011;30460;50.836;4.390;2023-02-18T18:10:20;9.67;;;4.30;;
44732;SDS011;30460;50.836;4.390;2023-02-18T18:12:47;8.37;;;5.13;;
44732;SDS011;30460;50.836;4.390;2023-02-18T18:15:19;6.87;;;5.03;;
44732;SDS011;30460;50.836;4.390;2023-02-18T18:17:45;7.37;;;5.57;;
44732;SDS011;30460;50.836;4.390;2023-02-18T18:20:11;9.10;;;5.70;;
44732;SDS011;30460;50.836;4.390;2023-02-18T18:22:37;7.47;;;5.77;;
44732;SDS011;30460;50.836;4.390;2023-02-18T18:25:38;8.77;;;5.77;;
44732;SDS011;30460;50.836;4.390;2023-02-18T18:27:56;8.63;;;6.13;;
44732;SDS011;30460;50.836;4.390;2023-02-18T18:30:24;9.77;;;7.07;;
44732;SDS011;30460;50.836;4.390;2023-02-18T18:32:50;11.03;;;7.03;;
44732;SDS011;30460;50.836;4.390;2023-02-18T18:35:21;9.70;;;7.57;;
44732;SDS011;30460;50.836;4.390;2023-02-18T18:37:47;9.60;;;8.50;;
44732;SDS011;30460;50.836;4.390;2023-02-18T18:40:13;12.17;;;8.60;;
44732;SDS011;30460;50.836;4.390;2023-02-18T18:42:40;12.00;;;8.80;;
44732;SDS011;30460;50.836;4.390;2023-02-18T18:45:06;12.07;;;8.87;;
44732;SDS011;30460;50.836;4.390;2023-02-18T18:47:32;11.57;;;9.87;;
44732;SDS011;30460;50.836;4.390;2023-02-18T18:49:58;11.90;;;10.13;;
44732;SDS011;30460;50.836;4.390;2023-02-18T18:52:26;11.70;;;10.43;;
44732;SDS011;30460;50.836;4.390;2023-02-18T18:54:54;10.97;;;9.83;;
44732;SDS011;30460;50.836;4.390;2023-02-18T18:57:20;9.97;;;8.90;;
44732;SDS011;30460;50.836;4.390;2023-02-18T18:59:49;11.60;;;9.70;;
44732;SDS011;30460;50.836;4.390;2023-02-18T19:02:15;10.00;;;9.00;;
44732;SDS011;30460;50.836;4.390;2023-02-18T19:04:41;10.07;;;9.07;;
44732;SDS011;30460;50.836;4.390;2023-02-18T19:07:07;10.70;;;9.60;;
44732;SDS011;30460;50.836;4.390;2023-02-18T19:09:33;10.20;;;9.17;;
44732;SDS011;30460;50.836;4.390;2023-02-18T19:12:00;10.13;;;9.00;;
44732;SDS011;30460;50.836;4.390;2023-02-18T19:14:26;10.03;;;9.03;;
44732;SDS011;30460;50.836;4.390;2023-02-18T19:16:52;9.83;;;8.83;;
44732;SDS011;30460;50.836;4.390;2023-02-18T19:19:20;9.43;;;7.77;;
44732;SDS011;30460;50.836;4.390;2023-02-18T19:21:48;9.27;;;8.13;;
44732;SDS011;30460;50.836;4.390;2023-02-18T19:24:14;9.07;;;8.03;;
44732;SDS011;30460;50.836;4.390;2023-02-18T19:26:40;7.53;;;6.83;;
44732;SDS011;30460;50.836;4.390;2023-02-18T19:29:06;8.60;;;7.70;;
44732;SDS011;30460;50.836;4.390;2023-02-18T19:31:32;12.93;;;10.17;;
44732;SDS011;30460;50.836;4.390;2023-02-18T19:33:59;8.90;;;8.03;;
44732;SDS011;30460;50.836;4.390;2023-02-18T19:36:25;10.13;;;9.10;;
44732;SDS011;30460;50.836;4.390;2023-02-18T19:38:51;9.07;;;8.10;;
44732;SDS011;30460;50.836;4.390;2023-02-18T19:41:17;9.13;;;8.07;;
44732;SDS011;30460;50.836;4.390;2023-02-18T19:43:43;8.50;;;7.40;;
44732;SDS011;30460;50.836;4.390;2023-02-18T19:46:11;8.53;;;7.63;;
44732;SDS011;30460;50.836;4.390;2023-02-18T19:48:48;8.60;;;7.90;;
44732;SDS011;30460;50.836;4.390;2023-02-18T19:51:27;8.83;;;7.80;;
44732;SDS011;30460;50.836;4.390;2023-02-18T19:53:53;13.00;;;9.27;;
44732;SDS011;30460;50.836;4.390;2023-02-18T19:56:21;13.13;;;10.60;;
44732;SDS011;30460;50.836;4.390;2023-02-18T19:58:48;14.27;;;12.77;;
44732;SDS011;30460;50.836;4.390;2023-02-18T20:01:15;15.70;;;11.83;;
44732;SDS011;30460;50.836;4.390;2023-02-18T20:03:43;12.30;;;10.40;;
44732;SDS011;30460;50.836;4.390;2023-02-18T20:06:16;12.20;;;9.17;;
44732;SDS011;30460;50.836;4.390;2023-02-18T20:08:42;10.73;;;9.20;;
44732;SDS011;30460;50.836;4.390;2023-02-18T20:11:08;8.90;;;8.00;;
44732;SDS011;30460;50.836;4.390;2023-02-18T20:13:34;8.40;;;7.60;;
44732;SDS011;30460;50.836;4.390;2023-02-18T20:16:04;7.60;;;6.90;;
44732;SDS011;30460;50.836;4.390;2023-02-18T20:18:31;6.83;;;6.23;;
44732;SDS011;30460;50.836;4.390;2023-02-18T20:20:58;6.73;;;6.03;;
44732;SDS011;30460;50.836;4.390;2023-02-18T20:23:24;7.60;;;6.90;;
44732;SDS011;30460;50.836;4.390;2023-02-18T20:25:50;7.33;;;6.63;;
44732;SDS011;30460;50.836;4.390;2023-02-18T20:28:16;6.93;;;6.20;;
44732;SDS011;30460;50.836;4.390;2023-02-18T20:30:44;6.53;;;5.60;;
44732;SDS011;30460;50.836;4.390;2023-02-18T20:33:10;6.17;;;5.57;;
44732;SDS011;30460;50.836;4.390;2023-02-18T20:35:36;6.00;;;5.40;;
44732;SDS011;30460;50.836;4.390;2023-02-18T20:38:02;5.70;;;5.10;;
44732;SDS011;30460;50.836;4.390;2023-02-18T20:40:28;7.00;;;5.30;;
44732;SDS011;30460;50.836;4.390;2023-02-18T20:42:54;6.47;;;5.50;;
44732;SDS011;30460;50.836;4.390;2023-02-18T20:45:20;6.63;;;5.47;;
44732;SDS011;30460;50.836;4.390;2023-02-18T20:47:46;6.10;;;5.53;;
44732;SDS011;30460;50.836;4.390;2023-02-18T20:50:13;5.57;;;5.07;;
44732;SDS011;30460;50.836;4.390;2023-02-18T20:52:39;5.77;;;5.27;;
44732;SDS011;30460;50.836;4.390;2023-02-18T20:55:05;6.47;;;5.13;;
44732;SDS011;30460;50.836;4.390;2023-02-18T20:57:31;6.43;;;5.03;;
44732;SDS011;30460;50.836;4.390;2023-02-18T20:59:58;6.00;;;5.40;;
44732;SDS011;30460;50.836;4.390;2023-02-18T21:02:24;6.67;;;6.10;;
44732;SDS011;30460;50.836;4.390;2023-02-18T21:04:50;6.20;;;5.60;;
44732;SDS011;30460;50.836;4.390;2023-02-18T21:07:16;6.53;;;5.30;;
44732;SDS011;30460;50.836;4.390;2023-02-18T21:09:42;7.10;;;5.70;;
44732;SDS011;30460;50.836;4.390;2023-02-18T21:12:08;6.53;;;5.77;;
44732;SDS011;30460;50.836;4.390;2023-02-18T21:14:35;7.47;;;5.93;;
44732;SDS011;30460;50.836;4.390;2023-02-18T21:17:01;6.67;;;5.97;;
44732;SDS011;30460;50.836;4.390;2023-02-18T21:19:27;5.97;;;5.37;;
44732;SDS011;30460;50.836;4.390;2023-02-18T21:21:53;6.83;;;5.97;;
44732;SDS011;30460;50.836;4.390;2023-02-18T21:24:20;6.53;;;5.83;;
44732;SDS011;30460;50.836;4.390;2023-02-18T21:26:47;5.80;;;5.30;;
44732;SDS011;30460;50.836;4.390;2023-02-18T21:29:13;5.87;;;5.27;;
44732;SDS011;30460;50.836;4.390;2023-02-18T21:31:40;5.60;;;4.50;;
44732;SDS011;30460;50.836;4.390;2023-02-18T21:34:09;6.57;;;5.13;;
44732;SDS011;30460;50.836;4.390;2023-02-18T21:36:35;5.53;;;4.50;;
44732;SDS011;30460;50.836;4.390;2023-02-18T21:39:10;5.10;;;4.60;;
44732;SDS011;30460;50.836;4.390;2023-02-18T21:41:37;5.00;;;4.50;;
44732;SDS011;30460;50.836;4.390;2023-02-18T21:44:07;4.40;;;4.00;;
44732;SDS011;30460;50.836;4.390;2023-02-18T21:46:37;4.27;;;3.87;;
44732;SDS011;30460;50.836;4.390;2023-02-18T21:49:04;5.77;;;4.40;;
44732;SDS011;30460;50.836;4.390;2023-02-18T21:51:41;4.87;;;4.27;;
44732;SDS011;30460;50.836;4.390;2023-02-18T21:54:25;4.17;;;3.77;;
44732;SDS011;30460;50.836;4.390;2023-02-18T21:56:52;4.67;;;4.27;;
44732;SDS011;30460;50.836;4.390;2023-02-18T21:59:19;5.60;;;4.20;;
44732;SDS011;30460;50.836;4.390;2023-02-18T22:01:45;5.77;;;4.40;;
44732;SDS011;30460;50.836;4.390;2023-02-18T22:04:12;4.73;;;4.33;;
44732;SDS011;30460;50.836;4.390;2023-02-18T22:06:38;7.17;;;4.87;;
44732;SDS011;30460;50.836;4.390;2023-02-18T22:09:04;5.40;;;4.90;;
44732;SDS011;30460;50.836;4.390;2023-02-18T22:11:31;5.87;;;4.50;;
44732;SDS011;30460;50.836;4.390;2023-02-18T22:13:57;6.37;;;5.17;;
44732;SDS011;30460;50.836;4.390;2023-02-18T22:16:23;6.30;;;5.70;;
44732;SDS011;30460;50.836;4.390;2023-02-18T22:18:53;7.20;;;5.83;;
44732;SDS011;30460;50.836;4.390;2023-02-18T22:21:19;7.17;;;5.80;;
44732;SDS011;30460;50.836;4.390;2023-02-18T22:23:45;7.10;;;5.90;;
44732;SDS011;30460;50.836;4.390;2023-02-18T22:26:11;5.30;;;4.80;;
44732;SDS011;30460;50.836;4.390;2023-02-18T22:28:37;5.30;;;4.73;;
44732;SDS011;30460;50.836;4.390;2023-02-18T22:31:10;5.23;;;4.70;;
44732;SDS011;30460;50.836;4.390;2023-02-18T22:33:37;5.53;;;4.33;;
44732;SDS011;30460;50.836;4.390;2023-02-18T22:36:04;4.60;;;4.20;;
44732;SDS011;30460;50.836;4.390;2023-02-18T22:38:32;6.37;;;4.80;;
44732;SDS011;30460;50.836;4.390;2023-02-18T22:41:03;4.43;;;4.00;;
44732;SDS011;30460;50.836;4.390;2023-02-18T22:43:29;4.90;;;4.30;;
44732;SDS011;30460;50.836;4.390;2023-02-18T22:45:55;5.87;;;3.70;;
44732;SDS011;30460;50.836;4.390;2023-02-18T22:48:21;4.97;;;3.90;;
44732;SDS011;30460;50.836;4.390;2023-02-18T22:50:47;5.73;;;4.10;;
44732;SDS011;30460;50.836;4.390;2023-02-18T22:53:13;4.23;;;3.83;;
44732;SDS011;30460;50.836;4.390;2023-02-18T22:55:39;4.50;;;4.07;;
44732;SDS011;30460;50.836;4.390;2023-02-18T22:58:05;5.37;;;4.23;;
44732;SDS011;30460;50.836;4.390;2023-02-18T23:00:32;4.07;;;3.67;;
44732;SDS011;30460;50.836;4.390;2023-02-18T23:02:58;4.43;;;3.90;;
44732;SDS011;30460;50.836;4.390;2023-02-18T23:05:24;4.70;;;4.20;;
44732;SDS011;30460;50.836;4.390;2023-02-18T23:07:51;6.07;;;4.60;;
44732;SDS011;30460;50.836;4.390;2023-02-18T23:10:17;6.53;;;4.67;;
44732;SDS011;30460;50.836;4.390;2023-02-18T23:12:43;6.80;;;4.60;;
44732;SDS011;30460;50.836;4.390;2023-02-18T23:15:09;6.50;;;4.40;;
44732;SDS011;30460;50.836;4.390;2023-02-18T23:17:35;7.80;;;4.77;;
44732;SDS011;30460;50.836;4.390;2023-02-18T23:20:04;5.70;;;4.60;;
44732;SDS011;30460;50.836;4.390;2023-02-18T23:22:31;5.43;;;4.73;;
44732;SDS011;30460;50.836;4.390;2023-02-18T23:24:58;7.13;;;5.57;;
44732;SDS011;30460;50.836;4.390;2023-02-18T23:27:24;7.23;;;4.70;;
44732;SDS011;30460;50.836;4.390;2023-02-18T23:29:51;6.90;;;4.67;;
44732;SDS011;30460;50.836;4.390;2023-02-18T23:32:17;6.30;;;4.23;;
44732;SDS011;30460;50.836;4.390;2023-02-18T23:34:44;4.47;;;4.03;;
44732;SDS011;30460;50.836;4.390;2023-02-18T23:37:10;5.03;;;4.40;;
44732;SDS011;30460;50.836;4.390;2023-02-18T23:39:36;6.53;;;4.90;;
44732;SDS011;30460;50.836;4.390;2023-02-18T23:42:03;5.00;;;4.50;;
44732;SDS011;30460;50.836;4.390;2023-02-18T23:44:29;6.47;;;5.07;;
44732;SDS011;30460;50.836;4.390;2023-02-18T23:46:55;6.83;;;5.37;;
44732;SDS011;30460;50.836;4.390;2023-02-18T23:49:22;8.23;;;5.37;;
44732;SDS011;30460;50.836;4.390;2023-02-18T23:51:53;7.27;;;5.40;;
44732;SDS011;30460;50.836;4.390;2023-02-18T23:54:20;8.53;;;5.97;;
44732;SDS011;30460;50.836;4.390;2023-02-18T23:56:46;10.30;;;6.43;;
44732;SDS011;30460;50.836;4.390;2023-02-18T23:59:12;7.30;;;5.97;;
